Terminal Aerodrome Forecast
Issued by NWS

Home | Current Version | Previous Version | Text Only | Print | Product List | Glossary Off
Versions: 1 2 3 4 5 6 7 8 9 10 11 12 13 14 15 16 17 18

000
FTUS43 KBIS 251100
TAFJMS
TAF
KJMS 251127Z 2512/2612 36006KT P6SM BKN015 OVC020
      TEMPO 2512/2515 SCT018 OVC025
     FM251500 32005KT P6SM OVC015
     FM251800 26008KT P6SM OVC018
     FM252100 21011KT P6SM OVC025
     FM260500 26015G20KT P6SM OVC080
     FM260800 29016G23KT P6SM OVC080=

USA.gov is the U.S. government's official web portal to all federal, state and local government web resources and services.